createdAt,value
2019-05-29T00:00:40.172Z,89.67
2019-05-29T00:03:10.459Z,89.79
2019-05-29T00:05:40.049Z,90.11
2019-05-29T00:08:10.419Z,90.03
2019-05-29T00:10:39.975Z,90.21
2019-05-29T00:13:10.280Z,90.87
2019-05-29T00:15:39.779Z,90.80
2019-05-29T00:18:10.359Z,91.06
2019-05-29T00:20:39.969Z,91.44
2019-05-29T00:23:10.470Z,92.09
2019-05-29T00:25:40.044Z,92.03
2019-05-29T00:28:10.537Z,92.31
2019-05-29T00:30:40.073Z,92.57
2019-05-29T00:33:10.080Z,92.74
2019-05-29T00:35:41.100Z,92.90
2019-05-29T00:38:10.617Z,92.88
2019-05-29T00:40:40.033Z,92.71
2019-05-29T00:43:09.623Z,92.55
2019-05-29T00:45:39.303Z,92.36
2019-05-29T00:48:09.636Z,92.39
2019-05-29T00:50:39.285Z,92.33
2019-05-29T00:53:08.700Z,92.09
2019-05-29T00:55:38.125Z,92.43
2019-05-29T00:58:08.795Z,92.56
2019-05-29T01:00:38.660Z,92.77
2019-05-29T01:03:08.067Z,93.14
2019-05-29T01:05:37.507Z,93.42
2019-05-29T01:08:06.910Z,93.66
2019-05-29T01:10:36.349Z,93.94
2019-05-29T01:13:05.745Z,94.18
2019-05-29T01:15:35.251Z,94.31
2019-05-29T01:18:04.805Z,94.58
2019-05-29T01:20:34.233Z,94.58
2019-05-29T01:23:03.638Z,94.65
2019-05-29T01:25:33.229Z,94.98
2019-05-29T01:28:02.636Z,95.18
2019-05-29T01:30:32.133Z,95.64
2019-05-29T01:33:01.534Z,95.74
2019-05-29T01:35:31.122Z,95.96
2019-05-29T01:38:00.536Z,96.24
2019-05-29T01:40:29.971Z,96.47
2019-05-29T01:43:01.208Z,96.35
2019-05-29T01:45:30.879Z,96.25
2019-05-29T01:48:00.282Z,96.19
2019-05-29T01:50:31.328Z,96.82
2019-05-29T01:53:00.772Z,96.97
2019-05-29T01:55:30.212Z,96.88
2019-05-29T01:57:59.705Z,96.49
2019-05-29T02:00:29.202Z,96.41
2019-05-29T02:02:58.602Z,96.35
2019-05-29T02:05:28.906Z,96.07
2019-05-29T02:07:58.320Z,96.14
2019-05-29T02:10:29.459Z,96.49
2019-05-29T02:12:58.862Z,96.56
2019-05-29T02:15:32.558Z,96.86
2019-05-29T02:17:59.427Z,96.68
2019-05-29T02:20:28.893Z,96.83
2019-05-29T02:22:58.368Z,96.63
2019-05-29T02:25:27.888Z,96.74
2019-05-29T02:27:57.286Z,96.77
2019-05-29T02:30:30.363Z,96.47
2019-05-29T02:32:57.905Z,96.33
2019-05-29T02:35:29.542Z,96.25
2019-05-29T02:37:58.572Z,96.40
2019-05-29T02:40:29.889Z,96.32
2019-05-29T02:42:59.184Z,96.48
2019-05-29T02:45:50.729Z,96.78
2019-05-29T02:47:59.738Z,97.24
2019-05-29T02:50:31.106Z,97.28
2019-05-29T02:53:00.373Z,97.43
2019-05-29T02:55:30.920Z,97.31
2019-05-29T02:58:00.521Z,97.36
2019-05-29T03:00:53.335Z,97.53
2019-05-29T03:03:26.562Z,97.68
2019-05-29T03:05:56.229Z,98.16
2019-05-29T03:08:27.093Z,97.90
2019-05-29T03:10:58.474Z,97.77
2019-05-29T03:13:29.831Z,97.82
2019-05-29T03:16:10.704Z,97.76
2019-05-29T03:18:30.815Z,97.83
2019-05-29T03:21:01.394Z,97.63
2019-05-29T03:23:33.309Z,98.25
2019-05-29T03:26:01.998Z,98.46
2019-05-29T03:28:32.453Z,98.68
2019-05-29T03:31:02.554Z,99.03
2019-05-29T03:33:39.325Z,99.25
2019-05-29T03:36:03.289Z,99.20
2019-05-29T03:38:34.624Z,99.24
2019-05-29T03:41:04.181Z,99.18
2019-05-29T03:43:36.069Z,98.94
2019-05-29T03:46:05.438Z,98.68
2019-05-29T03:48:34.878Z,98.58
2019-05-29T03:51:04.509Z,98.53
2019-05-29T03:53:36.174Z,98.43
2019-05-29T03:56:05.175Z,98.40
2019-05-29T03:58:35.306Z,98.37
2019-05-29T04:01:05.495Z,98.32
2019-05-29T04:03:35.667Z,98.30
2019-05-29T04:06:06.258Z,98.41
2019-05-29T04:08:37.800Z,98.39
2019-05-29T04:11:07.402Z,98.40
2019-05-29T04:13:38.822Z,98.25
2019-05-29T04:16:10.110Z,97.88
2019-05-29T04:18:41.748Z,97.59
2019-05-29T04:21:12.037Z,97.52
2019-05-29T04:23:45.849Z,97.78
2019-05-29T04:26:17.843Z,97.73
2019-05-29T04:28:48.221Z,97.24
2019-05-29T04:31:17.768Z,96.80
2019-05-29T04:33:47.354Z,96.24
2019-05-29T04:36:16.760Z,96.20
2019-05-29T04:38:46.205Z,95.75
2019-05-29T04:41:15.608Z,95.43
2019-05-29T04:43:45.211Z,94.85
2019-05-29T04:46:14.625Z,93.84
2019-05-29T04:48:44.078Z,93.17
2019-05-29T04:51:13.849Z,92.33
2019-05-29T04:53:43.319Z,91.92
2019-05-29T04:56:12.732Z,91.63
2019-05-29T04:58:42.163Z,90.92
2019-05-29T05:01:11.600Z,90.68
2019-05-29T05:03:41.038Z,90.55
2019-05-29T05:06:10.448Z,90.83
2019-05-29T05:08:40.268Z,90.62
2019-05-29T05:11:11.112Z,90.58
2019-05-29T05:13:40.943Z,90.21
2019-05-29T05:16:10.384Z,90.28
2019-05-29T05:18:40.348Z,89.97
2019-05-29T05:21:09.940Z,89.75
2019-05-29T05:23:40.526Z,89.62
2019-05-29T05:26:10.393Z,88.99
2019-05-29T05:28:43.583Z,88.38
2019-05-29T05:31:12.566Z,87.16
2019-05-29T05:33:42.535Z,88.09
2019-05-29T05:36:11.961Z,86.66
2019-05-29T05:38:41.571Z,85.60
2019-05-29T05:41:11.187Z,85.71
2019-05-29T05:43:41.424Z,85.33
2019-05-29T05:46:11.065Z,86.00
2019-05-29T05:48:41.562Z,84.86
2019-05-29T05:51:11.267Z,83.26
2019-05-29T05:53:41.776Z,81.42
2019-05-29T05:56:11.983Z,79.38
2019-05-29T05:58:42.276Z,79.47
2019-05-29T06:01:12.213Z,79.59
2019-05-29T06:03:42.434Z,79.57
2019-05-29T06:06:12.481Z,79.26
2019-05-29T06:08:42.439Z,78.64
2019-05-29T06:11:13.822Z,79.48
2019-05-29T06:13:44.111Z,79.42
2019-05-29T06:16:13.598Z,78.06
2019-05-29T06:18:43.293Z,77.97
2019-05-29T06:21:12.815Z,78.21
2019-05-29T06:23:43.526Z,77.67
2019-05-29T06:26:13.404Z,76.80
2019-05-29T06:28:43.512Z,76.08
2019-05-29T06:31:13.051Z,74.74
2019-05-29T06:33:43.684Z,74.04
2019-05-29T06:36:13.453Z,71.14
2019-05-29T06:38:44.389Z,70.93
2019-05-29T06:41:14.216Z,70.24
2019-05-29T06:43:44.351Z,70.21
2019-05-29T06:46:14.169Z,69.71
2019-05-29T06:48:56.375Z,70.78
2019-05-29T06:51:15.089Z,69.67
2019-05-29T06:53:44.614Z,69.94
2019-05-29T06:56:14.308Z,68.73
2019-05-29T06:58:44.422Z,69.35
2019-05-29T07:01:14.059Z,68.33
2019-05-29T07:03:43.946Z,66.95
2019-05-29T07:06:16.509Z,65.23
2019-05-29T07:08:48.247Z,62.40
2019-05-29T07:11:17.072Z,59.74
2019-05-29T07:13:50.028Z,59.79
2019-05-29T07:16:17.994Z,62.14
2019-05-29T07:19:23.377Z,58.90
2019-05-29T07:21:18.943Z,61.44
2019-05-29T07:23:48.969Z,59.88
2019-05-29T07:26:18.640Z,57.96
2019-05-29T07:29:06.909Z,58.47
2019-05-29T07:31:21.071Z,58.42
2019-05-29T07:33:50.531Z,60.04
2019-05-29T07:36:19.944Z,58.04
2019-05-29T07:39:02.332Z,56.28
2019-05-29T07:41:20.662Z,57.18
2019-05-29T07:43:50.071Z,58.08
2019-05-29T07:46:19.599Z,57.63
2019-05-29T07:48:50.357Z,59.44
2019-05-29T07:51:20.342Z,56.37
2019-05-29T07:53:49.833Z,58.81
2019-05-29T07:56:23.031Z,58.55
2019-05-29T07:59:02.403Z,57.74
2019-05-29T08:01:23.721Z,59.22
2019-05-29T08:03:55.136Z,58.44
2019-05-29T08:06:24.861Z,58.43
2019-05-29T08:08:54.713Z,56.45
2019-05-29T08:11:24.169Z,57.55
2019-05-29T08:13:53.928Z,57.16
2019-05-29T08:16:23.366Z,57.71
2019-05-29T08:18:53.279Z,56.45
2019-05-29T08:21:24.585Z,54.95
2019-05-29T08:23:54.028Z,55.84
2019-05-29T08:26:23.535Z,54.56
2019-05-29T08:28:52.991Z,55.48
2019-05-29T08:31:22.436Z,53.52
2019-05-29T08:33:52.006Z,52.84
2019-05-29T08:36:21.527Z,54.48
2019-05-29T08:38:51.716Z,53.45
2019-05-29T08:41:24.381Z,50.98
2019-05-29T08:43:53.839Z,53.80
2019-05-29T08:46:23.392Z,54.00
2019-05-29T08:48:54.393Z,52.78
2019-05-29T08:51:23.942Z,53.64
2019-05-29T08:53:54.764Z,53.48
2019-05-29T08:56:25.391Z,54.17
2019-05-29T08:58:54.847Z,53.99
2019-05-29T09:01:24.341Z,54.78
2019-05-29T09:03:55.490Z,54.94
2019-05-29T09:06:26.420Z,55.49
2019-05-29T09:08:55.887Z,52.81
2019-05-29T09:11:26.606Z,55.22
2019-05-29T09:13:56.053Z,54.82
2019-05-29T09:16:26.907Z,54.24
2019-05-29T09:18:56.353Z,56.28
2019-05-29T09:21:26.743Z,54.81
2019-05-29T09:23:58.670Z,53.59
2019-05-29T09:26:27.581Z,54.09
2019-05-29T09:28:58.829Z,55.72
2019-05-29T09:31:28.269Z,53.85
2019-05-29T09:33:57.759Z,52.50
2019-05-29T09:36:27.314Z,51.93
2019-05-29T09:38:56.794Z,51.56
2019-05-29T09:41:26.219Z,53.93
2019-05-29T09:43:59.531Z,51.95
2019-05-29T09:46:28.439Z,53.16
2019-05-29T09:49:01.274Z,53.90
2019-05-29T09:51:29.035Z,51.74
2019-05-29T09:54:01.030Z,54.03
2019-05-29T09:56:30.024Z,52.38
2019-05-29T09:59:00.436Z,53.38
2019-05-29T10:01:30.574Z,54.46
2019-05-29T10:04:03.439Z,54.10
2019-05-29T10:06:31.197Z,51.97
2019-05-29T10:09:01.744Z,53.19
2019-05-29T10:11:31.395Z,51.71
2019-05-29T10:14:02.618Z,50.53
2019-05-29T10:16:32.295Z,50.12
2019-05-29T10:19:03.058Z,48.16
2019-05-29T10:21:40.255Z,47.21
2019-05-29T10:24:06.190Z,45.22
2019-05-29T10:26:35.843Z,45.18
2019-05-29T10:29:09.612Z,43.30
2019-05-29T10:31:38.289Z,44.86
2019-05-29T10:34:07.875Z,41.87
2019-05-29T10:36:37.295Z,44.40
2019-05-29T10:39:08.129Z,42.13
2019-05-29T10:41:37.610Z,39.28
2019-05-29T10:44:12.407Z,41.07
2019-05-29T10:46:39.778Z,41.07
2019-05-29T10:49:09.235Z,42.42
2019-05-29T10:51:54.569Z,40.93
2019-05-29T10:54:10.324Z,40.30
2019-05-29T10:56:39.736Z,40.71
2019-05-29T10:59:10.693Z,38.31
2019-05-29T11:01:40.102Z,36.72
2019-05-29T11:04:09.690Z,40.68
2019-05-29T11:06:40.809Z,40.19
2019-05-29T11:09:10.315Z,39.22
2019-05-29T11:11:39.919Z,37.25
2019-05-29T11:14:09.456Z,41.11
2019-05-29T11:16:39.896Z,41.39
2019-05-29T11:19:09.561Z,41.38
2019-05-29T11:21:38.966Z,45.92
2019-05-29T11:24:08.484Z,43.12
2019-05-29T11:26:37.971Z,40.36
2019-05-29T11:29:09.030Z,43.45
2019-05-29T11:31:38.440Z,46.79
2019-05-29T11:34:07.902Z,43.07
2019-05-29T11:36:37.301Z,39.35
2019-05-29T11:39:09.031Z,43.19
2019-05-29T11:41:38.462Z,44.37
2019-05-29T11:44:08.027Z,45.63
2019-05-29T11:46:37.503Z,46.98
2019-05-29T11:49:07.078Z,46.98
2019-05-29T11:51:36.539Z,49.64
2019-05-29T11:54:06.115Z,49.64
2019-05-29T11:56:35.659Z,49.47
2019-05-29T11:59:05.577Z,48.43
2019-05-29T12:01:49.908Z,48.29
2019-05-29T12:04:23.216Z,46.27
2019-05-29T12:06:37.372Z,45.71
2019-05-29T12:09:09.528Z,45.90
2019-05-29T12:11:39.890Z,45.47
2019-05-29T12:14:09.384Z,44.11
2019-05-29T12:16:38.779Z,44.82
2019-05-29T12:19:08.188Z,44.34
2019-05-29T12:21:42.600Z,44.34
2019-05-29T12:24:10.371Z,40.43
2019-05-29T12:26:39.924Z,40.56
2019-05-29T12:29:11.893Z,44.22
2019-05-29T12:31:40.591Z,43.40
2019-05-29T12:34:18.823Z,43.30
2019-05-29T12:36:41.473Z,43.30
2019-05-29T12:39:11.521Z,41.25
2019-05-29T12:41:40.958Z,42.57
2019-05-29T12:44:10.375Z,40.74
2019-05-29T12:46:39.818Z,40.72
2019-05-29T12:49:09.276Z,36.08
2019-05-29T12:51:38.728Z,36.23
2019-05-29T12:54:09.788Z,35.60
2019-05-29T12:56:39.214Z,32.72
2019-05-29T12:59:08.695Z,33.93
2019-05-29T13:01:38.137Z,32.52
2019-05-29T13:04:09.441Z,33.37
2019-05-29T13:06:38.880Z,34.51
2019-05-29T13:09:09.349Z,34.03
2019-05-29T13:11:39.108Z,34.73
2019-05-29T13:14:08.553Z,35.49
2019-05-29T13:16:38.180Z,34.31
2019-05-29T13:19:07.830Z,39.68
2019-05-29T13:21:37.527Z,39.63
2019-05-29T13:24:11.261Z,39.38
2019-05-29T13:26:38.508Z,39.39
2019-05-29T13:29:08.086Z,35.40
2019-05-29T13:31:37.560Z,31.84
2019-05-29T13:34:07.782Z,33.60
2019-05-29T13:36:37.325Z,32.02
2019-05-29T13:39:08.909Z,34.28
2019-05-29T13:41:38.338Z,34.45
2019-05-29T13:44:07.898Z,33.01
2019-05-29T13:46:37.358Z,30.73
2019-05-29T13:49:07.275Z,32.25
2019-05-29T13:51:36.781Z,31.27
2019-05-29T13:54:11.777Z,32.41
2019-05-29T13:56:37.523Z,32.32
2019-05-29T13:59:08.294Z,33.65
2019-05-29T14:01:38.289Z,35.14
2019-05-29T14:04:08.674Z,34.59
2019-05-29T14:06:38.294Z,35.92
2019-05-29T14:09:09.854Z,36.00
2019-05-29T14:11:39.756Z,33.87
2019-05-29T14:14:11.838Z,33.37
2019-05-29T14:16:40.681Z,31.59
2019-05-29T14:19:10.138Z,33.32
2019-05-29T14:21:39.593Z,33.25
2019-05-29T14:24:26.335Z,31.29
2019-05-29T14:26:40.264Z,33.06
2019-05-29T14:29:10.313Z,32.49
2019-05-29T14:31:39.886Z,32.11
2019-05-29T14:34:10.220Z,31.90
2019-05-29T14:36:39.679Z,30.89
2019-05-29T14:39:09.981Z,28.94
2019-05-29T14:41:41.933Z,29.37
2019-05-29T14:44:12.043Z,28.59
2019-05-29T14:46:41.722Z,31.63
2019-05-29T14:49:13.070Z,31.18
2019-05-29T14:51:42.400Z,31.04
2019-05-29T14:54:13.091Z,32.02
2019-05-29T14:56:42.758Z,32.92
2019-05-29T14:59:13.639Z,32.71
2019-05-29T15:01:43.361Z,31.04
2019-05-29T15:04:14.624Z,30.63
2019-05-29T15:06:43.965Z,30.83
2019-05-29T15:09:13.843Z,29.79
2019-05-29T15:11:43.440Z,30.55
2019-05-29T15:14:14.573Z,28.42
2019-05-29T15:16:43.974Z,29.18
2019-05-29T15:19:13.511Z,29.34
2019-05-29T15:21:43.847Z,29.66
2019-05-29T15:24:13.632Z,27.43
2019-05-29T15:26:43.270Z,27.85
2019-05-29T15:29:15.126Z,27.16
2019-05-29T15:31:43.954Z,28.23
2019-05-29T15:34:14.464Z,29.13
2019-05-29T15:36:54.138Z,28.55
2019-05-29T15:39:26.629Z,27.36
2019-05-29T15:41:56.746Z,28.59
2019-05-29T15:44:26.489Z,29.51
2019-05-29T15:46:56.019Z,28.66
2019-05-29T15:49:25.560Z,28.58
2019-05-29T15:51:55.005Z,29.79
2019-05-29T15:54:26.004Z,30.45
2019-05-29T15:56:55.629Z,31.82
2019-05-29T15:59:25.036Z,32.15
2019-05-29T16:01:55.157Z,31.72
2019-05-29T16:04:24.645Z,29.88
2019-05-29T16:06:55.129Z,28.10
2019-05-29T16:09:25.157Z,30.13
2019-05-29T16:11:56.083Z,27.45
2019-05-29T16:14:25.596Z,27.36
2019-05-29T16:16:55.030Z,27.97
2019-05-29T16:19:24.511Z,27.47
2019-05-29T16:21:53.948Z,28.14
2019-05-29T16:24:23.482Z,29.57
2019-05-29T16:27:07.749Z,29.73
2019-05-29T16:29:24.071Z,29.82
2019-05-29T16:31:53.522Z,31.54
2019-05-29T16:34:23.101Z,29.18
2019-05-29T16:36:52.486Z,27.36
2019-05-29T16:39:23.436Z,28.20
2019-05-29T16:41:52.919Z,28.62
2019-05-29T16:44:29.282Z,28.49
2019-05-29T16:46:56.825Z,28.41
2019-05-29T16:49:26.311Z,28.10
2019-05-29T16:51:55.843Z,28.56
2019-05-29T16:54:25.335Z,27.43
2019-05-29T16:56:55.040Z,28.02
2019-05-29T16:59:26.179Z,29.32
2019-05-29T17:01:55.648Z,29.58
2019-05-29T17:04:25.061Z,30.77
2019-05-29T17:06:54.510Z,31.74
2019-05-29T17:09:24.565Z,32.92
2019-05-29T17:11:54.055Z,31.94
2019-05-29T17:14:24.988Z,31.94
2019-05-29T17:16:54.716Z,31.23
2019-05-29T17:19:25.430Z,30.28
2019-05-29T17:21:55.228Z,29.36
2019-05-29T17:24:25.055Z,28.53
2019-05-29T17:26:54.743Z,29.69
2019-05-29T17:29:25.067Z,29.12
2019-05-29T17:31:54.663Z,30.04
2019-05-29T17:34:25.265Z,29.69
2019-05-29T17:36:55.048Z,30.07
2019-05-29T17:39:25.188Z,30.19
2019-05-29T17:41:54.669Z,31.77
2019-05-29T17:44:24.149Z,31.21
2019-05-29T17:46:53.612Z,32.56
2019-05-29T17:49:32.988Z,32.26
2019-05-29T17:51:54.244Z,32.98
2019-05-29T17:54:24.005Z,31.87
2019-05-29T17:56:53.697Z,31.39
2019-05-29T17:59:24.107Z,31.95
2019-05-29T18:01:53.643Z,32.28
2019-05-29T18:04:24.824Z,34.73
2019-05-29T18:06:56.522Z,34.73
2019-05-29T18:09:27.971Z,36.79
2019-05-29T18:11:56.671Z,36.91
2019-05-29T18:14:27.439Z,36.12
2019-05-29T18:16:57.089Z,36.72
2019-05-29T18:19:27.990Z,36.95
2019-05-29T18:21:58.104Z,36.95
2019-05-29T18:24:28.156Z,38.31
2019-05-29T18:26:59.149Z,39.23
2019-05-29T18:29:29.685Z,39.67
2019-05-29T18:31:59.223Z,40.84
2019-05-29T18:34:29.619Z,41.15
2019-05-29T18:36:59.351Z,41.61
2019-05-29T18:39:28.914Z,42.01
2019-05-29T18:41:59.955Z,42.86
2019-05-29T18:44:29.400Z,42.91
2019-05-29T18:46:58.846Z,42.38
2019-05-29T18:49:28.707Z,45.19
2019-05-29T18:52:00.585Z,44.08
2019-05-29T18:54:30.049Z,44.55
2019-05-29T18:57:14.419Z,44.74
2019-05-29T18:59:32.783Z,45.20
2019-05-29T19:02:02.233Z,45.59
2019-05-29T19:04:32.163Z,46.43
2019-05-29T19:07:01.659Z,47.38
2019-05-29T19:09:32.002Z,48.71
2019-05-29T19:12:01.593Z,48.08
2019-05-29T19:14:32.407Z,48.03
2019-05-29T19:17:02.156Z,47.98
2019-05-29T19:19:32.535Z,47.87
2019-05-29T19:22:02.115Z,48.35
2019-05-29T19:24:32.839Z,48.94
2019-05-29T19:27:02.357Z,51.73
2019-05-29T19:29:39.334Z,49.53
2019-05-29T19:32:12.192Z,50.02
2019-05-29T19:34:43.691Z,50.02
2019-05-29T19:37:14.823Z,50.88
2019-05-29T19:39:44.662Z,50.71
2019-05-29T19:42:15.452Z,51.72
2019-05-29T19:44:46.337Z,52.60
2019-05-29T19:47:17.339Z,52.78
2019-05-29T19:49:47.765Z,52.42
2019-05-29T19:52:17.268Z,52.79
2019-05-29T19:54:46.907Z,53.33
2019-05-29T19:57:16.397Z,53.18
2019-05-29T19:59:45.959Z,53.50
2019-05-29T20:02:16.258Z,55.39
2019-05-29T20:04:47.325Z,55.55
2019-05-29T20:07:18.722Z,55.35
2019-05-29T20:09:57.558Z,55.78
2019-05-29T20:12:34.297Z,55.88
2019-05-29T20:15:12.394Z,55.78
2019-05-29T20:17:43.522Z,55.35
2019-05-29T20:20:21.458Z,55.66
2019-05-29T20:22:56.458Z,56.22
2019-05-29T20:25:39.119Z,55.82
2019-05-29T20:28:13.168Z,55.51
2019-05-29T20:30:55.870Z,55.61
2019-05-29T20:33:32.510Z,55.74
2019-05-29T20:36:04.291Z,55.59
2019-05-29T20:38:51.377Z,55.72
2019-05-29T20:41:38.387Z,56.13
2019-05-29T20:44:14.706Z,56.35
2019-05-29T20:46:44.230Z,56.06
2019-05-29T20:49:13.643Z,56.92
2019-05-29T20:51:44.481Z,56.77
2019-05-29T20:54:13.896Z,57.57
2019-05-29T20:56:43.604Z,57.63
2019-05-29T20:59:13.050Z,58.45
2019-05-29T21:01:46.062Z,58.43
2019-05-29T21:04:14.006Z,59.01
2019-05-29T21:06:43.471Z,58.67
2019-05-29T21:09:12.963Z,58.76
2019-05-29T21:11:43.589Z,58.78
2019-05-29T21:14:13.230Z,58.17
2019-05-29T21:16:43.971Z,58.57
2019-05-29T21:19:13.511Z,58.99
2019-05-29T21:21:43.101Z,57.85
2019-05-29T21:24:12.522Z,58.41
2019-05-29T21:26:43.226Z,57.82
2019-05-29T21:29:12.892Z,57.91
2019-05-29T21:31:43.926Z,57.38
2019-05-29T21:34:13.416Z,57.00
2019-05-29T21:36:44.155Z,56.77
2019-05-29T21:39:13.795Z,56.66
2019-05-29T21:41:44.562Z,56.58
2019-05-29T21:44:14.234Z,57.02
2019-05-29T21:46:45.033Z,56.75
2019-05-29T21:49:14.769Z,56.41
2019-05-29T21:51:45.879Z,56.36
2019-05-29T21:54:15.551Z,56.15
2019-05-29T21:56:45.846Z,55.79
2019-05-29T21:59:15.281Z,56.10
2019-05-29T22:01:46.202Z,56.16
2019-05-29T22:04:15.780Z,57.09
2019-05-29T22:06:45.220Z,55.44
2019-05-29T22:09:14.872Z,55.51
2019-05-29T22:11:44.393Z,55.74
2019-05-29T22:14:13.912Z,55.01
2019-05-29T22:16:44.857Z,54.91
2019-05-29T22:19:14.296Z,54.46
2019-05-29T22:21:43.864Z,53.73
2019-05-29T22:24:13.365Z,54.69
2019-05-29T22:26:42.819Z,54.73
2019-05-29T22:29:18.393Z,54.36
2019-05-29T22:31:45.057Z,54.39
2019-05-29T22:34:14.691Z,53.75
2019-05-29T22:36:44.212Z,54.15
2019-05-29T22:39:13.654Z,54.21
2019-05-29T22:41:43.110Z,53.09
2019-05-29T22:44:12.539Z,53.48
2019-05-29T22:46:41.991Z,52.99
2019-05-29T22:49:11.503Z,53.31
2019-05-29T22:51:40.952Z,51.85
2019-05-29T22:54:10.388Z,52.60
2019-05-29T22:56:39.909Z,52.02
2019-05-29T22:59:09.339Z,53.14
2019-05-29T23:01:39.113Z,52.34
2019-05-29T23:04:08.533Z,52.36
2019-05-29T23:06:38.017Z,52.34
2019-05-29T23:09:07.950Z,51.76
2019-05-29T23:11:37.388Z,51.50
2019-05-29T23:14:06.888Z,51.32
2019-05-29T23:16:36.510Z,50.48
2019-05-29T23:19:06.127Z,50.92
2019-05-29T23:21:35.581Z,50.78
2019-05-29T23:24:05.087Z,50.62
2019-05-29T23:26:34.538Z,50.58
2019-05-29T23:29:04.236Z,50.90
2019-05-29T23:31:33.688Z,50.30
2019-05-29T23:34:03.371Z,50.63
2019-05-29T23:36:33.279Z,51.22
2019-05-29T23:39:03.450Z,51.36
2019-05-29T23:41:33.044Z,51.18
2019-05-29T23:44:04.845Z,52.02
2019-05-29T23:46:34.304Z,51.77
2019-05-29T23:49:04.752Z,52.26
2019-05-29T23:51:34.167Z,52.44
2019-05-29T23:54:05.153Z,52.59
2019-05-29T23:56:34.602Z,53.21
2019-05-29T23:59:04.320Z,53.03
